Time;durP1;ratioP1;P1;durP2;ratioP2;P2;SDS_P1;SDS_P2;PMS_P1;PMS_P2;Temp;Humidity;BMP_temperature;BMP_pressure;BME280_temperature;BME280_humidity;BME280_pressure;Samples;Min_cycle;Max_cycle;Signal;HPM_P1;HPM_P2
2022/02/18 00:00:11;;;;;;;18.85;2.90;;;;;;;7.53;92.06;96687.88;5014265;28;20088;-64
2022/02/18 00:02:36;;;;;;;10.60;2.30;;;;;;;7.55;91.22;96693.78;5003480;28;20088;-64
2022/02/18 00:05:02;;;;;;;14.30;2.17;;;;;;;7.55;91.93;96699.22;5015418;28;20406;-68
2022/02/18 00:07:28;;;;;;;14.50;2.30;;;;;;;7.65;90.97;96701.47;5001272;28;20136;-63
2022/02/18 00:09:53;;;;;;;15.43;3.63;;;;;;;7.78;90.54;96688.56;5003095;28;20061;-63
2022/02/18 00:12:19;;;;;;;13.90;2.63;;;;;;;7.94;89.48;96683.16;4996611;28;20034;-62
2022/02/18 00:14:44;;;;;;;10.18;1.88;;;;;;;7.92;89.31;96688.13;5003918;28;20429;-65
2022/02/18 00:17:09;;;;;;;17.10;3.08;;;;;;;7.98;88.84;96688.69;4996926;28;20053;-66
2022/02/18 00:19:35;;;;;;;17.60;2.92;;;;;;;7.90;89.83;96689.66;5000660;28;20045;-62
2022/02/18 00:22:02;;;;;;;20.83;4.15;;;;;;;7.95;89.46;96687.44;5002730;28;20050;-66
2022/02/18 00:24:28;;;;;;;17.75;2.60;;;;;;;7.94;89.29;96671.44;5000319;28;20120;-65
2022/02/18 00:26:53;;;;;;;20.02;3.38;;;;;;;7.97;89.96;96685.16;5002819;28;20471;-65
2022/02/18 00:29:18;;;;;;;16.75;2.30;;;;;;;7.73;91.00;96685.31;4998752;28;20477;-67
2022/02/18 00:31:44;;;;;;;16.50;3.50;;;;;;;7.66;92.26;96683.19;5003415;28;20042;-64
2022/02/18 00:34:09;;;;;;;13.02;2.47;;;;;;;7.56;93.20;96678.22;5011598;28;20080;-66
2022/02/18 00:36:35;;;;;;;16.65;3.38;;;;;;;7.42;93.08;96665.78;5004399;28;20065;-65
2022/02/18 00:39:00;;;;;;;17.98;2.13;;;;;;;7.38;94.45;96677.72;5000294;28;20102;-69
2022/02/18 00:41:26;;;;;;;13.43;2.13;;;;;;;7.31;94.95;96685.69;4998608;28;20062;-67
2022/02/18 00:43:51;;;;;;;10.57;2.28;;;;;;;7.22;94.82;96674.94;5005978;28;20061;-66
2022/02/18 00:46:17;;;;;;;14.52;3.00;;;;;;;7.29;94.43;96686.03;4996581;28;20046;-67
2022/02/18 00:48:42;;;;;;;9.73;2.13;;;;;;;7.54;92.03;96680.50;5001856;28;20042;-66
2022/02/18 00:51:08;;;;;;;14.30;2.45;;;;;;;7.56;91.11;96681.75;4995727;28;20041;-67
2022/02/18 00:53:34;;;;;;;12.77;2.08;;;;;;;7.73;89.00;96672.47;4999658;28;20482;-68
2022/02/18 00:55:59;;;;;;;11.13;2.33;;;;;;;7.74;89.80;96676.78;5004679;28;20042;-67
2022/02/18 00:58:25;;;;;;;19.15;3.08;;;;;;;7.72;89.31;96683.72;5009512;28;20029;-68
2022/02/18 01:00:50;;;;;;;15.45;4.13;;;;;;;7.80;88.79;96674.59;5010618;28;20042;-67
2022/02/18 01:03:17;;;;;;;19.10;2.70;;;;;;;7.84;88.14;96680.94;5011870;28;20033;-67
2022/02/18 01:05:43;;;;;;;13.25;2.20;;;;;;;7.78;87.89;96671.44;5008292;28;20042;-69
2022/02/18 01:08:09;;;;;;;14.50;2.85;;;;;;;7.70;88.87;96681.34;5011901;28;20030;-69
2022/02/18 01:10:35;;;;;;;20.40;3.40;;;;;;;7.63;89.29;96684.69;5023698;28;20502;-67
2022/02/18 01:13:00;;;;;;;14.07;2.15;;;;;;;7.65;88.95;96685.13;5031395;28;20076;-67
2022/02/18 01:15:26;;;;;;;15.45;3.10;;;;;;;7.65;88.86;96687.03;5012143;28;20037;-69
2022/02/18 01:17:51;;;;;;;12.13;2.75;;;;;;;7.61;88.34;96686.16;5011693;28;20097;-68
2022/02/18 01:20:17;;;;;;;11.95;2.35;;;;;;;7.58;89.07;96692.28;5011799;28;20036;-66
2022/02/18 01:22:43;;;;;;;9.10;1.98;;;;;;;7.63;88.03;96689.31;5011780;28;20037;-65
2022/02/18 01:25:11;;;;;;;19.67;5.10;;;;;;;7.75;87.46;96688.47;5020781;28;20089;-68
2022/02/18 01:27:38;;;;;;;16.27;2.15;;;;;;;7.55;88.26;96679.38;5013593;28;20040;-69
2022/02/18 01:30:04;;;;;;;10.75;2.42;;;;;;;7.45;88.62;96662.38;5010931;28;20773;-67
2022/02/18 01:32:30;;;;;;;18.35;3.58;;;;;;;7.57;88.05;96663.47;5010028;28;20120;-67
2022/02/18 01:34:55;;;;;;;16.45;2.67;;;;;;;7.68;87.41;96656.34;5007597;28;20048;-67
2022/02/18 01:37:21;;;;;;;20.92;2.33;;;;;;;7.81;86.52;96647.00;5010562;28;20433;-66
2022/02/18 01:39:46;;;;;;;15.73;2.63;;;;;;;7.84;85.82;96650.94;5008965;28;20129;-68
2022/02/18 01:42:11;;;;;;;18.10;2.42;;;;;;;7.73;87.04;96655.31;5009612;28;20041;-67
2022/02/18 01:44:45;;;;;;;16.23;3.00;;;;;;;7.56;88.07;96662.69;5011720;28;20029;-68
2022/02/18 01:47:16;;;;;;;20.02;3.42;;;;;;;7.57;88.48;96666.19;5010336;28;20581;-68
2022/02/18 01:49:43;;;;;;;23.67;3.83;;;;;;;7.45;88.66;96667.00;5010989;28;20072;-68
2022/02/18 01:52:09;;;;;;;13.77;2.45;;;;;;;7.35;89.45;96672.97;5007720;28;20029;-69
2022/02/18 01:54:34;;;;;;;14.57;2.00;;;;;;;7.38;89.58;96664.09;5009182;28;20030;-69
2022/02/18 01:57:01;;;;;;;15.48;2.50;;;;;;;7.36;89.08;96655.47;5009311;28;20049;-68
2022/02/18 01:59:28;;;;;;;15.85;2.70;;;;;;;7.31;89.51;96672.06;5010226;28;20049;-68
2022/02/18 02:01:54;;;;;;;16.65;3.75;;;;;;;7.40;88.31;96656.34;5010627;28;20033;-69
2022/02/18 02:04:19;;;;;;;17.23;3.10;;;;;;;7.33;88.67;96662.41;5010952;28;20095;-67
2022/02/18 02:06:46;;;;;;;17.42;2.38;;;;;;;7.45;87.96;96653.38;5023974;28;20724;-67
2022/02/18 02:09:13;;;;;;;11.50;2.38;;;;;;;7.43;87.35;96656.47;5010329;28;20474;-68
2022/02/18 02:11:39;;;;;;;13.13;2.35;;;;;;;7.58;87.12;96652.22;5009977;28;20068;-67
2022/02/18 02:14:06;;;;;;;12.55;2.85;;;;;;;7.60;87.05;96644.47;5010717;28;20627;-68
2022/02/18 02:16:32;;;;;;;10.75;1.85;;;;;;;7.56;86.89;96631.88;5007784;28;20122;-67
2022/02/18 02:18:57;;;;;;;13.80;2.60;;;;;;;7.54;86.88;96624.03;5007663;28;20030;-68
2022/02/18 02:21:25;;;;;;;14.70;2.90;;;;;;;7.51;87.80;96618.50;5009049;28;20441;-67
2022/02/18 02:23:51;;;;;;;17.75;2.55;;;;;;;7.52;88.02;96615.44;5008856;28;20030;-67
2022/02/18 02:26:24;;;;;;;23.02;2.50;;;;;;;7.42;88.19;96615.97;5009515;28;20025;-67
2022/02/18 02:28:52;;;;;;;25.08;2.63;;;;;;;7.34;88.13;96622.34;5010554;28;20033;-68
2022/02/18 02:31:22;;;;;;;16.30;2.17;;;;;;;7.32;88.39;96630.06;5008574;28;20039;-68
2022/02/18 02:33:47;;;;;;;20.20;2.97;;;;;;;7.36;87.87;96629.00;5009017;28;20038;-67
2022/02/18 02:36:12;;;;;;;14.55;3.95;;;;;;;7.44;87.73;96630.03;5008715;28;20132;-67
2022/02/18 02:38:38;;;;;;;12.13;2.35;;;;;;;7.49;87.56;96616.16;5025394;28;20030;-67
2022/02/18 02:41:03;;;;;;;11.63;2.53;;;;;;;7.47;87.45;96605.59;5010056;28;20121;-68
2022/02/18 02:43:29;;;;;;;13.50;2.90;;;;;;;7.44;87.68;96603.56;5009974;28;20065;-67
2022/02/18 02:45:54;;;;;;;16.40;2.72;;;;;;;7.44;86.98;96602.78;5009155;28;20453;-67
2022/02/18 02:48:20;;;;;;;18.02;2.45;;;;;;;7.41;87.88;96595.28;5010022;28;20720;-68
2022/02/18 02:50:45;;;;;;;12.38;2.88;;;;;;;7.41;87.55;96598.00;5008566;28;20079;-67
2022/02/18 02:53:10;;;;;;;12.65;2.25;;;;;;;7.34;88.65;96593.16;5008725;28;20042;-68
2022/02/18 02:55:36;;;;;;;17.20;2.38;;;;;;;7.34;88.77;96595.88;5010394;28;20117;-68
2022/02/18 02:58:01;;;;;;;15.73;2.38;;;;;;;7.32;88.91;96592.72;5025433;28;20117;-66
2022/02/18 03:00:27;;;;;;;12.93;3.13;;;;;;;7.19;90.15;96593.91;5021786;28;20038;-68
2022/02/18 03:02:52;;;;;;;14.40;2.22;;;;;;;7.06;90.77;96588.50;5010037;28;20032;-68
2022/02/18 03:05:17;;;;;;;14.18;2.03;;;;;;;7.07;92.14;96587.34;5007727;28;20430;-66
2022/02/18 03:07:43;;;;;;;13.57;2.72;;;;;;;7.19;90.46;96581.09;5008926;28;20038;-69
2022/02/18 03:10:09;;;;;;;16.48;2.30;;;;;;;7.30;89.82;96575.91;5009117;28;20033;-67
2022/02/18 03:12:35;;;;;;;17.42;2.42;;;;;;;7.24;90.88;96577.31;5008791;28;20030;-67
2022/02/18 03:15:01;;;;;;;23.30;2.85;;;;;;;7.26;90.47;96577.78;5021661;28;20034;-67
2022/02/18 03:17:27;;;;;;;19.35;2.47;;;;;;;7.49;88.95;96578.00;5010403;28;20376;-68
2022/02/18 03:19:52;;;;;;;12.02;2.28;;;;;;;7.47;88.45;96577.53;5011409;28;20030;-67
2022/02/18 03:22:19;;;;;;;13.40;2.40;;;;;;;7.48;89.32;96581.84;5014246;28;20022;-68
2022/02/18 03:24:44;;;;;;;13.82;2.33;;;;;;;7.37;90.13;96567.94;5017480;28;20038;-67
2022/02/18 03:27:10;;;;;;;12.43;2.03;;;;;;;7.25;91.64;96568.00;5014224;28;20109;-68
2022/02/18 03:29:36;;;;;;;12.55;2.10;;;;;;;7.12;92.89;96559.09;5010368;28;20058;-68
2022/02/18 03:32:03;;;;;;;8.18;2.00;;;;;;;7.06;93.65;96546.88;5014512;28;20025;-67
2022/02/18 03:34:29;;;;;;;9.77;2.17;;;;;;;7.11;93.61;96540.38;5010596;28;20038;-66
2022/02/18 03:36:54;;;;;;;15.60;2.08;;;;;;;6.94;94.65;96534.09;5008750;28;20044;-67
2022/02/18 03:39:20;;;;;;;20.50;3.00;;;;;;;6.79;95.43;96543.00;5013787;28;20046;-66
2022/02/18 03:41:45;;;;;;;16.60;3.00;;;;;;;6.74;96.10;96543.25;5008644;28;20022;-67
2022/02/18 03:44:11;;;;;;;13.65;1.98;;;;;;;6.83;96.48;96541.97;5012599;28;20038;-65
2022/02/18 03:46:36;;;;;;;9.40;2.20;;;;;;;6.71;96.42;96547.44;5012384;28;20144;-67
2022/02/18 03:49:02;;;;;;;14.50;3.60;;;;;;;6.60;96.41;96546.34;5014357;28;20056;-68
2022/02/18 03:51:28;;;;;;;11.63;2.60;;;;;;;6.54;97.49;96537.63;5011376;28;20026;-68
2022/02/18 03:53:53;;;;;;;10.93;3.35;;;;;;;6.47;97.11;96545.59;4997012;28;20045;-68
2022/02/18 03:56:19;;;;;;;19.05;2.13;;;;;;;6.33;98.02;96548.66;5010624;28;20486;-66
2022/02/18 03:58:45;;;;;;;16.50;3.40;;;;;;;6.00;100.00;96533.28;5013328;28;20069;-67
2022/02/18 04:01:11;;;;;;;17.63;2.92;;;;;;;5.77;100.00;96537.56;5010543;28;20034;-67
2022/02/18 04:03:37;;;;;;;15.95;2.55;;;;;;;5.58;100.00;96529.97;5011530;28;20045;-68
2022/02/18 04:06:02;;;;;;;17.05;3.08;;;;;;;5.50;100.00;96529.72;5012203;28;20491;-68
2022/02/18 04:08:28;;;;;;;12.00;2.13;;;;;;;5.44;100.00;96524.84;5010764;28;20042;-67
2022/02/18 04:10:53;;;;;;;17.75;2.22;;;;;;;5.42;100.00;96536.06;5011109;28;20501;-66
2022/02/18 04:13:19;;;;;;;13.02;2.85;;;;;;;5.40;100.00;96524.72;5009851;28;20037;-67
2022/02/18 04:15:44;;;;;;;14.52;3.15;;;;;;;5.38;100.00;96524.25;5010731;28;20553;-67
2022/02/18 04:18:10;;;;;;;18.05;2.75;;;;;;;5.34;100.00;96512.50;5010822;28;20034;-67
2022/02/18 04:20:35;;;;;;;19.13;2.97;;;;;;;5.31;100.00;96505.81;5014124;28;20034;-68
2022/02/18 04:23:01;;;;;;;17.08;4.45;;;;;;;5.32;100.00;96499.25;5026094;28;20049;-67
2022/02/18 04:25:26;;;;;;;13.63;2.60;;;;;;;5.42;100.00;96497.22;5030915;28;20085;-66
2022/02/18 04:27:53;;;;;;;20.65;2.35;;;;;;;5.65;100.00;96492.16;5038475;28;20056;-67
2022/02/18 04:30:19;;;;;;;16.15;2.47;;;;;;;5.97;100.00;96485.03;5033995;28;20029;-67
2022/02/18 04:32:45;;;;;;;21.38;3.17;;;;;;;5.87;100.00;96472.69;5030430;28;20105;-67
2022/02/18 04:35:11;;;;;;;8.48;2.00;;;;;;;6.03;100.00;96464.66;5016269;28;20507;-66
2022/02/18 04:37:37;;;;;;;8.18;2.03;;;;;;;6.19;100.00;96462.00;5030699;28;20418;-67
2022/02/18 04:40:03;;;;;;;18.55;2.65;;;;;;;6.26;100.00;96462.19;5021753;28;20073;-66
2022/02/18 04:42:28;;;;;;;22.65;3.17;;;;;;;6.25;100.00;96459.84;5012994;28;20450;-65
2022/02/18 04:44:54;;;;;;;12.15;2.47;;;;;;;6.35;100.00;96447.69;5014114;28;20033;-68
2022/02/18 04:47:20;;;;;;;13.15;2.33;;;;;;;6.28;100.00;96454.50;5023336;28;20557;-67
2022/02/18 04:49:45;;;;;;;10.98;1.90;;;;;;;6.22;100.00;96447.72;5031797;28;20033;-67
2022/02/18 04:52:12;;;;;;;20.02;2.78;;;;;;;6.13;100.00;96436.97;5031277;28;20051;-68
2022/02/18 04:54:38;;;;;;;12.77;2.92;;;;;;;6.05;100.00;96451.50;5030906;28;20430;-68
2022/02/18 04:57:03;;;;;;;8.20;2.42;;;;;;;5.99;100.00;96450.13;5041090;28;20037;-66
2022/02/18 04:59:29;;;;;;;13.27;2.53;;;;;;;5.91;100.00;96453.75;5013953;28;20487;-66
2022/02/18 05:01:54;;;;;;;18.10;5.40;;;;;;;5.92;100.00;96456.13;5029751;28;20041;-65
2022/02/18 05:04:20;;;;;;;18.85;6.45;;;;;;;5.97;100.00;96448.91;5041745;28;20029;-66
2022/02/18 05:06:45;;;;;;;17.38;3.63;;;;;;;5.94;100.00;96442.19;5023564;28;20532;-66
2022/02/18 05:09:11;;;;;;;11.15;3.38;;;;;;;5.88;100.00;96438.91;5024832;28;20052;-66
2022/02/18 05:11:36;;;;;;;18.83;2.60;;;;;;;5.99;100.00;96447.41;5033102;28;20033;-67
2022/02/18 05:14:02;;;;;;;17.60;3.17;;;;;;;6.02;100.00;96446.75;5013213;28;20087;-66
2022/02/18 05:16:27;;;;;;;17.13;3.65;;;;;;;6.01;100.00;96444.38;5013161;28;20030;-67
2022/02/18 05:18:55;;;;;;;22.15;4.05;;;;;;;5.98;100.00;96439.59;5013340;28;20029;-67
2022/02/18 05:21:22;;;;;;;11.05;2.42;;;;;;;5.96;100.00;96444.59;5019041;28;20049;-66
2022/02/18 05:23:47;;;;;;;21.40;4.07;;;;;;;5.90;100.00;96439.34;5025631;28;20040;-67
2022/02/18 05:26:13;;;;;;;14.57;2.75;;;;;;;5.87;100.00;96439.25;5027639;28;20030;-67
2022/02/18 05:28:38;;;;;;;9.77;2.50;;;;;;;5.80;100.00;96437.13;5012087;28;20034;-67
2022/02/18 05:31:04;;;;;;;15.20;2.75;;;;;;;5.77;100.00;96428.88;5032260;28;20393;-66
2022/02/18 05:33:29;;;;;;;11.90;2.80;;;;;;;5.71;100.00;96426.38;5029460;28;20303;-66
2022/02/18 05:35:55;;;;;;;11.95;3.15;;;;;;;5.75;100.00;96424.56;5029378;28;20072;-67
2022/02/18 05:38:20;;;;;;;10.88;3.38;;;;;;;5.75;100.00;96413.69;5032901;28;20033;-66
2022/02/18 05:40:46;;;;;;;16.50;3.10;;;;;;;5.84;100.00;96416.28;5032574;28;20564;-67
2022/02/18 05:43:11;;;;;;;13.70;3.13;;;;;;;5.88;100.00;96413.66;5019697;28;20408;-67
2022/02/18 05:45:37;;;;;;;16.38;2.58;;;;;;;5.89;100.00;96402.47;5035678;28;20029;-69
2022/02/18 05:48:02;;;;;;;11.10;2.92;;;;;;;5.90;100.00;96400.53;5033053;28;20026;-66
2022/02/18 05:50:28;;;;;;;11.23;2.92;;;;;;;5.84;100.00;96397.25;5032440;28;20084;-67
2022/02/18 05:52:53;;;;;;;20.15;3.30;;;;;;;5.67;100.00;96387.44;5023230;28;20037;-66
2022/02/18 05:55:18;;;;;;;12.85;3.10;;;;;;;5.39;100.00;96392.00;5030707;28;20044;-67
2022/02/18 05:57:44;;;;;;;14.48;2.83;;;;;;;5.38;100.00;96398.56;5024770;28;20609;-67
2022/02/18 06:00:10;;;;;;;19.30;3.50;;;;;;;5.29;100.00;96390.50;5030190;28;20048;-68
2022/02/18 06:02:36;;;;;;;21.23;4.80;;;;;;;5.28;100.00;96380.78;5007613;28;20029;-66
2022/02/18 06:05:05;;;;;;;16.17;4.30;;;;;;;5.25;100.00;96382.25;5025442;28;20037;-65
2022/02/18 06:07:30;;;;;;;22.58;4.28;;;;;;;5.16;100.00;96371.50;5031853;28;20363;-65
2022/02/18 06:09:56;;;;;;;20.73;3.20;;;;;;;5.19;100.00;96370.03;5026295;28;20045;-65
2022/02/18 06:12:21;;;;;;;8.80;2.97;;;;;;;5.23;100.00;96379.09;5021169;28;20042;-65
2022/02/18 06:14:50;;;;;;;24.20;2.95;;;;;;;5.35;100.00;96375.59;5029470;28;20083;-68
2022/02/18 06:17:21;;;;;;;12.90;3.20;;;;;;;5.40;100.00;96371.84;5031620;28;20025;-68
2022/02/18 06:19:46;;;;;;;16.17;3.33;;;;;;;5.47;100.00;96366.63;5014940;28;20076;-67
2022/02/18 06:22:12;;;;;;;12.82;3.40;;;;;;;5.48;100.00;96363.56;5031660;28;20424;-67
2022/02/18 06:24:38;;;;;;;20.83;3.85;;;;;;;5.50;100.00;96363.22;5030952;28;20083;-67
2022/02/18 06:27:04;;;;;;;15.95;3.55;;;;;;;5.47;100.00;96364.69;5021842;28;20500;-67
2022/02/18 06:29:30;;;;;;;19.67;4.35;;;;;;;5.44;100.00;96359.16;5019678;28;20041;-67
2022/02/18 06:31:57;;;;;;;18.10;5.05;;;;;;;5.44;100.00;96354.53;5036843;28;20037;-68
2022/02/18 06:34:23;;;;;;;16.50;4.25;;;;;;;5.43;100.00;96341.28;5031699;28;20087;-67
2022/02/18 06:36:51;;;;;;;18.27;3.47;;;;;;;5.41;100.00;96338.13;5025482;28;20026;-66
2022/02/18 06:39:18;;;;;;;19.48;5.88;;;;;;;5.42;100.00;96335.06;5034046;28;20030;-67
2022/02/18 06:41:44;;;;;;;25.77;6.22;;;;;;;5.46;100.00;96327.81;5022259;28;20045;-67
2022/02/18 06:44:09;;;;;;;12.93;4.32;;;;;;;5.52;100.00;96339.22;5022442;28;20021;-67
2022/02/18 06:46:34;;;;;;;20.45;8.23;;;;;;;5.60;100.00;96332.06;5053156;22;20045;-62
2022/02/18 06:49:00;;;;;;;23.33;4.90;;;;;;;5.70;100.00;96331.59;5031915;28;20482;-61
2022/02/18 06:51:25;;;;;;;17.73;3.50;;;;;;;5.88;100.00;96332.91;5031017;28;20037;-63
2022/02/18 06:53:51;;;;;;;12.93;3.53;;;;;;;5.71;100.00;96323.13;5031378;28;20037;-63
2022/02/18 06:56:16;;;;;;;16.10;3.08;;;;;;;5.69;100.00;96319.16;5040227;28;20404;-64
2022/02/18 06:58:42;;;;;;;18.13;3.08;;;;;;;5.71;100.00;96322.34;5048744;28;20574;-63
2022/02/18 07:01:07;;;;;;;11.32;3.28;;;;;;;5.75;100.00;96324.00;5050116;28;20037;-63
2022/02/18 07:03:33;;;;;;;16.95;3.00;;;;;;;5.97;100.00;96310.28;5050041;28;20059;-64
2022/02/18 07:06:02;;;;;;;15.98;3.05;;;;;;;6.10;100.00;96317.22;5049945;28;20028;-64
2022/02/18 07:08:29;;;;;;;18.80;3.92;;;;;;;6.18;100.00;96312.78;5050616;28;20057;-63
2022/02/18 07:10:54;;;;;;;16.20;3.42;;;;;;;6.12;100.00;96315.75;5050658;28;20108;-65
2022/02/18 07:13:20;;;;;;;13.50;3.42;;;;;;;6.13;100.00;96316.53;5050884;28;20132;-64
2022/02/18 07:15:45;;;;;;;17.42;3.20;;;;;;;6.28;100.00;96315.00;5049561;28;20033;-64
2022/02/18 07:18:11;;;;;;;14.20;3.40;;;;;;;6.36;100.00;96310.56;5048984;28;20536;-64
2022/02/18 07:20:37;;;;;;;16.15;4.47;;;;;;;6.40;100.00;96306.78;5042554;28;20075;-64
2022/02/18 07:23:04;;;;;;;14.52;3.47;;;;;;;6.46;100.00;96299.94;5065605;28;20037;-64
2022/02/18 07:25:30;;;;;;;16.17;4.13;;;;;;;6.52;100.00;96289.59;5050447;28;20037;-63
2022/02/18 07:27:56;;;;;;;8.90;2.95;;;;;;;6.38;100.00;96298.16;5050638;28;20094;-65
2022/02/18 07:30:21;;;;;;;21.13;4.55;;;;;;;6.30;100.00;96289.03;5050115;28;20535;-65
2022/02/18 07:32:48;;;;;;;12.52;3.42;;;;;;;6.35;100.00;96271.66;5031261;28;20530;-65
2022/02/18 07:35:13;;;;;;;17.95;4.20;;;;;;;6.37;100.00;96271.31;5049038;28;20068;-65
2022/02/18 07:37:39;;;;;;;32.00;12.70;;;;;;;6.28;100.00;96280.44;5049600;28;20032;-65
2022/02/18 07:40:05;;;;;;;22.50;8.77;;;;;;;6.41;100.00;96283.88;5049219;28;20032;-65
2022/02/18 07:42:31;;;;;;;17.15;5.00;;;;;;;6.52;100.00;96281.44;5050166;28;20489;-65
2022/02/18 07:44:56;;;;;;;13.70;4.57;;;;;;;6.66;100.00;96291.88;5050574;28;20077;-65
2022/02/18 07:47:22;;;;;;;19.67;4.57;;;;;;;6.86;100.00;96282.66;5049026;28;20113;-65
2022/02/18 07:49:47;;;;;;;15.60;4.13;;;;;;;6.98;100.00;96270.84;5041025;28;20112;-65
2022/02/18 07:52:15;;;;;;;19.85;4.53;;;;;;;6.94;100.00;96269.22;5049744;28;20071;-65
2022/02/18 07:54:41;;;;;;;15.10;4.60;;;;;;;6.97;99.88;96266.56;5051588;28;20735;-64
2022/02/18 07:57:07;;;;;;;12.95;4.60;;;;;;;7.01;99.50;96261.22;5053758;28;20083;-65
2022/02/18 07:59:32;;;;;;;14.60;4.07;;;;;;;7.17;99.39;96261.97;5053220;28;20032;-64
2022/02/18 08:01:57;;;;;;;13.48;4.28;;;;;;;7.29;98.39;96247.41;5053339;28;20028;-65
2022/02/18 08:04:23;;;;;;;15.25;4.68;;;;;;;7.38;98.05;96236.31;5052316;28;20037;-65
2022/02/18 08:06:48;;;;;;;8.63;4.05;;;;;;;7.47;97.77;96232.25;5044337;28;20486;-65
2022/02/18 08:09:14;;;;;;;16.05;4.15;;;;;;;7.46;97.19;96221.72;5052847;28;20155;-65
2022/02/18 08:11:40;;;;;;;20.27;5.28;;;;;;;7.39;99.08;96221.56;5054069;28;20041;-65
2022/02/18 08:14:05;;;;;;;26.80;5.60;;;;;;;7.45;98.65;96214.69;5053937;28;20029;-65
2022/02/18 08:16:32;;;;;;;13.32;4.15;;;;;;;7.44;98.25;96211.16;5053080;28;20045;-65
2022/02/18 08:18:59;;;;;;;65.20;38.58;;;;;;;7.28;97.60;96211.22;5052838;28;20107;-65
2022/02/18 08:21:24;;;;;;;40.30;12.38;;;;;;;7.04;99.54;96195.94;5054054;28;20108;-63
2022/02/18 08:23:52;;;;;;;47.72;18.75;;;;;;;6.97;100.00;96206.69;5052671;28;20076;-63
2022/02/18 08:26:22;;;;;;;26.55;9.68;;;;;;;7.18;100.00;96187.25;5053460;28;20028;-65
2022/02/18 08:28:48;;;;;;;31.77;17.73;;;;;;;7.22;97.63;96192.78;5052774;28;20021;-63
2022/02/18 08:31:14;;;;;;;25.52;10.25;;;;;;;7.44;97.09;96194.03;5053058;28;20515;-64
2022/02/18 08:33:39;;;;;;;14.05;7.18;;;;;;;7.70;96.33;96192.59;5052689;28;20120;-64
2022/02/18 08:36:08;;;;;;;13.63;5.05;;;;;;;7.94;95.65;96189.56;5047985;28;20033;-64
2022/02/18 08:38:34;;;;;;;16.67;4.43;;;;;;;8.23;94.70;96190.84;5049019;28;20538;-64
2022/02/18 08:40:59;;;;;;;11.15;3.63;;;;;;;8.13;92.64;96174.28;5052311;28;20037;-69
2022/02/18 08:43:24;;;;;;;15.30;4.22;;;;;;;7.87;92.49;96175.78;5053321;28;20040;-64
2022/02/18 08:45:50;;;;;;;12.02;3.67;;;;;;;8.13;93.23;96174.28;5053414;28;20021;-65
2022/02/18 08:48:15;;;;;;;18.05;4.32;;;;;;;8.48;92.26;96152.31;5041743;28;20060;-65
2022/02/18 08:50:41;;;;;;;13.82;3.80;;;;;;;9.21;89.90;96154.09;5044636;28;20068;-66
2022/02/18 08:53:06;;;;;;;12.25;3.85;;;;;;;9.69;84.85;96140.63;5037853;28;20045;-65
2022/02/18 08:55:32;;;;;;;16.55;4.50;;;;;;;9.97;82.09;96148.31;5038555;28;20509;-64
2022/02/18 08:57:57;;;;;;;10.65;3.92;;;;;;;9.61;81.72;96138.94;5042490;28;20489;-66
2022/02/18 09:00:23;;;;;;;10.05;4.72;;;;;;;9.90;81.28;96145.50;5036231;28;20063;-65
2022/02/18 09:02:50;;;;;;;17.42;6.57;;;;;;;9.30;82.81;96133.53;5043196;28;20083;-67
2022/02/18 09:05:16;;;;;;;9.10;3.53;;;;;;;9.52;81.51;96134.56;5031622;28;20127;-66
2022/02/18 09:07:44;;;;;;;9.98;4.18;;;;;;;8.76;82.47;96124.63;5039404;28;20604;-65
2022/02/18 09:10:11;;;;;;;8.27;2.70;;;;;;;8.91;82.46;96120.16;5035760;28;20072;-67
2022/02/18 09:12:39;;;;;;;19.38;7.35;;;;;;;9.21;82.31;96119.34;5038840;28;20045;-67
2022/02/18 09:15:09;;;;;;;10.32;3.97;;;;;;;9.40;80.29;96123.88;5037573;28;20038;-65
2022/02/18 09:17:35;;;;;;;17.60;7.75;;;;;;;9.69;77.82;96118.75;5036543;28;20057;-66
2022/02/18 09:20:00;;;;;;;18.42;3.30;;;;;;;9.75;76.60;96118.00;5042564;28;20099;-66
2022/02/18 09:22:26;;;;;;;9.25;2.35;;;;;;;9.46;76.94;96111.44;5038726;28;20834;-65
2022/02/18 09:24:52;;;;;;;10.98;2.65;;;;;;;9.45;76.97;96109.09;5037516;28;20045;-66
2022/02/18 09:27:18;;;;;;;12.73;2.35;;;;;;;9.37;77.23;96098.06;5055577;28;20033;-65
2022/02/18 09:29:44;;;;;;;11.48;3.35;;;;;;;9.37;77.94;96097.31;5044553;28;20037;-65
2022/02/18 09:32:09;;;;;;;12.23;2.90;;;;;;;9.39;78.25;96092.25;5036182;28;20056;-65
2022/02/18 09:34:35;;;;;;;9.32;2.15;;;;;;;9.70;76.00;96084.75;5044028;28;20048;-65
2022/02/18 09:37:01;;;;;;;7.60;2.20;;;;;;;9.77;75.76;96087.56;5041532;28;20053;-66
2022/02/18 09:39:26;;;;;;;10.02;3.13;;;;;;;9.92;73.54;96078.31;5041271;28;20040;-65
2022/02/18 09:41:52;;;;;;;8.82;2.35;;;;;;;10.03;73.53;96074.88;5047463;28;20032;-65
2022/02/18 09:44:18;;;;;;;8.60;2.20;;;;;;;10.29;72.96;96079.41;5037995;28;20052;-64
2022/02/18 09:46:45;;;;;;;6.50;2.50;;;;;;;10.05;71.08;96075.31;5043164;28;20095;-65
2022/02/18 09:49:12;;;;;;;15.25;5.47;;;;;;;10.24;71.44;96069.56;5037552;28;20084;-65
2022/02/18 09:51:38;;;;;;;5.40;1.98;;;;;;;10.56;70.79;96074.53;5043267;28;20128;-64
2022/02/18 09:54:05;;;;;;;8.88;2.45;;;;;;;11.01;70.09;96074.38;5039739;28;20124;-65
2022/02/18 09:56:33;;;;;;;11.57;1.67;;;;;;;11.50;69.36;96070.25;5040161;28;20048;-65
2022/02/18 09:59:04;;;;;;;8.52;1.75;;;;;;;11.72;67.02;96073.03;5040928;28;20064;-64
2022/02/18 10:01:33;;;;;;;9.02;2.10;;;;;;;11.74;66.23;96055.03;5039645;28;20090;-64
2022/02/18 10:04:00;;;;;;;11.48;2.33;;;;;;;11.76;65.93;96057.38;5039770;28;20137;-66
2022/02/18 10:06:29;;;;;;;16.23;2.05;;;;;;;11.76;65.87;96051.91;5036129;28;20051;-64
2022/02/18 10:08:54;;;;;;;9.40;2.05;;;;;;;11.80;65.37;96052.69;5041840;28;20048;-65
2022/02/18 10:11:20;;;;;;;7.40;2.20;;;;;;;12.00;64.91;96053.09;5036187;28;20041;-65
2022/02/18 10:13:46;;;;;;;11.30;2.75;;;;;;;12.17;63.82;96046.03;5041950;28;20063;-64
2022/02/18 10:16:12;;;;;;;7.15;1.70;;;;;;;12.34;63.72;96044.47;5033708;28;20045;-66
2022/02/18 10:18:56;;;;;;;7.05;1.63;;;;;;;12.62;62.78;96038.13;5056048;28;20056;-65
2022/02/18 10:21:29;;;;;;;23.10;3.97;;;;;;;13.01;62.41;96043.50;5035402;28;20040;-65
2022/02/18 10:24:08;;;;;;;9.90;2.55;;;;;;;13.88;59.31;96032.88;5041485;28;20041;-65
2022/02/18 10:26:38;;;;;;;8.05;1.63;;;;;;;13.94;56.52;96039.50;5041170;28;20106;-67
2022/02/18 10:29:08;;;;;;;5.45;1.42;;;;;;;14.01;55.39;96030.41;5038679;28;20537;-68
2022/02/18 10:31:36;;;;;;;6.90;1.30;;;;;;;13.96;52.85;96031.59;5040755;28;20049;-66
2022/02/18 10:34:06;;;;;;;8.50;2.45;;;;;;;14.41;51.89;96028.09;5037836;28;20056;-67
2022/02/18 10:36:40;;;;;;;4.55;1.50;;;;;;;14.43;50.39;96027.69;5040968;28;20190;-65
2022/02/18 10:39:33;;;;;;;7.50;1.25;;;;;;;14.85;47.87;96017.44;5037074;28;20401;-66
2022/02/18 10:42:01;;;;;;;5.00;1.33;;;;;;;16.18;44.95;96016.38;5040454;28;20041;-65
2022/02/18 10:44:28;;;;;;;8.20;2.30;;;;;;;16.57;43.26;96017.69;5037733;28;20435;-65
2022/02/18 10:46:56;;;;;;;5.45;1.33;;;;;;;16.40;42.55;96008.53;5036920;28;20044;-66
2022/02/18 10:49:29;;;;;;;24.67;2.88;;;;;;;15.95;43.48;95994.28;5040878;28;21101;-65
2022/02/18 10:51:56;;;;;;;15.20;2.28;;;;;;;14.84;46.74;95983.56;5063747;28;20037;-65
2022/02/18 10:54:32;;;;;;;2.88;1.00;;;;;;;14.28;47.83;95983.75;5039434;28;20508;-65
2022/02/18 10:57:20;;;;;;;6.43;1.00;;;;;;;14.29;47.88;95990.03;5040616;28;20052;-71
2022/02/18 10:59:48;;;;;;;3.17;0.65;;;;;;;13.94;48.61;96002.94;5038804;28;20079;-69
2022/02/18 11:02:14;;;;;;;6.03;0.90;;;;;;;13.76;49.41;95986.56;5037697;28;20052;-65
2022/02/18 11:04:40;;;;;;;5.25;1.33;;;;;;;13.09;50.22;95983.00;5041510;28;20501;-63
2022/02/18 11:07:09;;;;;;;6.70;1.40;;;;;;;13.29;50.26;95975.84;5035385;28;20059;-64
2022/02/18 11:09:35;;;;;;;8.27;2.80;;;;;;;13.25;50.64;95963.28;5041258;28;20110;-64
2022/02/18 11:12:07;;;;;;;11.43;3.75;;;;;;;13.20;51.36;95959.78;5038504;28;20144;-63
2022/02/18 11:14:33;;;;;;;5.70;1.08;;;;;;;12.61;52.60;95948.66;5040733;28;20165;-63
2022/02/18 11:16:59;;;;;;;7.05;1.50;;;;;;;12.41;53.86;95948.34;5041829;28;20179;-64
2022/02/18 11:19:25;;;;;;;6.05;1.38;;;;;;;12.19;54.83;95942.09;5032846;28;20139;-64
2022/02/18 11:21:50;;;;;;;8.77;1.70;;;;;;;12.20;55.19;95938.97;5041642;28;20041;-64
2022/02/18 11:24:17;;;;;;;4.55;1.20;;;;;;;12.12;55.56;95942.13;5031499;28;20045;-64
2022/02/18 11:26:44;;;;;;;8.63;1.40;;;;;;;12.20;56.29;95924.47;5038358;28;20041;-66